createdAt,value
2023-11-17T00:01:07.562Z,-2.90
2023-11-17T00:03:39.642Z,-2.95
2023-11-17T00:06:11.151Z,-2.89
2023-11-17T00:08:43.589Z,-2.84
2023-11-17T00:11:34.957Z,-2.72
2023-11-17T00:14:12.786Z,-2.76
2023-11-17T00:16:51.331Z,-2.75
2023-11-17T00:19:25.459Z,-2.66
2023-11-17T00:21:58.916Z,-2.71
2023-11-17T00:24:28.907Z,-2.86
2023-11-17T00:27:00.912Z,-2.88
2023-11-17T00:29:34.308Z,-2.80
2023-11-17T00:32:10.344Z,-2.77
2023-11-17T00:34:43.347Z,-2.69
2023-11-17T00:37:19.950Z,-2.57
2023-11-17T00:39:51.192Z,-2.64
2023-11-17T00:42:32.268Z,-2.57
2023-11-17T00:45:05.181Z,-2.69
2023-11-17T00:47:39.061Z,-2.70
2023-11-17T00:50:22.037Z,-2.69
2023-11-17T00:53:06.173Z,-2.84
2023-11-17T00:55:41.724Z,-2.86
2023-11-17T00:58:20.456Z,-2.79
2023-11-17T01:01:00.649Z,-3.00
2023-11-17T01:03:38.399Z,-2.80
2023-11-17T01:06:12.721Z,-2.89
2023-11-17T01:08:48.504Z,-2.84
2023-11-17T01:11:21.768Z,-2.77
2023-11-17T01:13:57.198Z,-2.59
2023-11-17T01:16:32.194Z,-2.64
2023-11-17T01:19:09.812Z,-2.75
2023-11-17T01:21:42.033Z,-2.82
2023-11-17T01:24:14.989Z,-2.70
2023-11-17T01:26:48.834Z,-2.78
2023-11-17T01:29:20.713Z,-2.82
2023-11-17T01:31:52.811Z,-2.73
2023-11-17T01:34:27.322Z,-2.71
2023-11-17T01:37:05.505Z,-2.69
2023-11-17T01:39:39.023Z,-2.83
2023-11-17T01:42:12.030Z,-2.83
2023-11-17T01:44:55.375Z,-2.81
2023-11-17T01:47:29.592Z,-2.86
2023-11-17T01:50:22.765Z,-2.84
2023-11-17T01:53:03.083Z,-2.96
2023-11-17T01:55:38.122Z,-2.83
2023-11-17T01:58:11.104Z,-3.07
2023-11-17T02:00:49.493Z,-2.96
2023-11-17T02:03:21.494Z,-3.02
2023-11-17T02:05:55.756Z,-2.89
2023-11-17T02:08:44.535Z,-2.84
2023-11-17T02:11:30.074Z,-2.86
2023-11-17T02:14:10.966Z,-2.82
2023-11-17T02:17:04.978Z,-2.81
2023-11-17T02:19:42.239Z,-2.81
2023-11-17T02:22:20.833Z,-2.97
2023-11-17T02:25:13.247Z,-3.06
2023-11-17T02:27:59.747Z,-3.03
2023-11-17T02:30:39.184Z,-2.91
2023-11-17T02:33:14.417Z,-2.87
2023-11-17T02:35:50.058Z,-2.87
2023-11-17T02:38:21.720Z,-2.89
2023-11-17T02:40:56.534Z,-2.95
2023-11-17T02:43:35.341Z,-2.98
2023-11-17T02:46:11.214Z,-2.99
2023-11-17T02:48:50.701Z,-2.98
2023-11-17T02:51:28.731Z,-2.90
2023-11-17T02:54:19.005Z,-2.93
2023-11-17T02:56:51.810Z,-3.00
2023-11-17T02:59:29.663Z,-3.09
2023-11-17T03:02:06.607Z,-3.05
2023-11-17T03:04:41.996Z,-2.94
2023-11-17T03:07:14.871Z,-3.16
2023-11-17T03:09:53.907Z,-3.09
2023-11-17T03:12:28.569Z,-2.93
2023-11-17T03:14:59.571Z,-3.11
2023-11-17T03:17:34.681Z,-2.94
2023-11-17T03:20:15.217Z,-2.91
2023-11-17T03:22:53.447Z,-2.85
2023-11-17T03:25:38.494Z,-3.03
2023-11-17T03:28:17.546Z,-3.10
2023-11-17T03:30:57.275Z,-3.07
2023-11-17T03:33:46.503Z,-2.97
2023-11-17T03:36:20.050Z,-2.94
2023-11-17T03:38:53.661Z,-2.94
2023-11-17T03:44:19.563Z,-2.83
2023-11-17T03:46:51.626Z,-3.10
2023-11-17T03:49:27.265Z,-3.13
2023-11-17T03:52:04.654Z,-3.00
2023-11-17T03:54:42.573Z,-3.05
2023-11-17T03:57:26.090Z,-2.98
2023-11-17T04:00:10.801Z,-3.11
2023-11-17T04:02:53.087Z,-3.13
2023-11-17T04:05:40.963Z,-3.15
2023-11-17T04:11:05.078Z,-3.11
2023-11-17T04:13:41.304Z,-3.02
2023-11-17T04:16:16.848Z,-2.90
2023-11-17T04:18:54.154Z,-3.15
2023-11-17T04:21:29.145Z,-3.14
2023-11-17T04:24:07.145Z,-3.27
2023-11-17T04:26:41.995Z,-3.38
2023-11-17T04:29:19.955Z,-3.41
2023-11-17T04:31:51.635Z,-3.51
2023-11-17T04:34:24.941Z,-3.36
2023-11-17T04:36:59.271Z,-3.33
2023-11-17T04:39:38.656Z,-3.37
2023-11-17T04:42:16.684Z,-3.43
2023-11-17T04:44:57.628Z,-3.36
2023-11-17T04:47:36.882Z,-3.38
2023-11-17T04:50:16.021Z,-3.52
2023-11-17T04:52:55.137Z,-3.52
2023-11-17T04:55:29.388Z,-3.45
2023-11-17T04:58:01.628Z,-3.44
2023-11-17T05:00:38.548Z,-3.46
2023-11-17T05:03:11.272Z,-3.47
2023-11-17T05:05:52.685Z,-3.41
2023-11-17T05:08:32.101Z,-3.34
2023-11-17T05:11:10.437Z,-3.33
2023-11-17T05:13:51.853Z,-3.45
2023-11-17T05:16:27.525Z,-3.39
2023-11-17T05:19:01.677Z,-3.42
2023-11-17T05:21:41.163Z,-3.39
2023-11-17T05:24:13.150Z,-3.37
2023-11-17T05:26:46.879Z,-3.33
2023-11-17T05:29:22.858Z,-3.21
2023-11-17T05:32:01.292Z,-3.60
2023-11-17T05:34:34.632Z,-3.48
2023-11-17T05:37:11.060Z,-3.76
2023-11-17T05:39:49.654Z,-3.93
2023-11-17T06:29:32.750Z,-4.57
2023-11-17T06:32:18.412Z,-4.36
2023-11-17T06:35:07.923Z,-4.31
2023-11-17T06:37:40.783Z,-4.36
2023-11-17T06:40:22.182Z,-4.41
2023-11-17T06:43:03.794Z,-4.47
2023-11-17T06:45:42.500Z,-4.36
2023-11-17T06:48:17.111Z,-4.56
2023-11-17T06:50:47.118Z,-4.31
2023-11-17T06:53:24.338Z,-4.30
2023-11-17T06:55:58.983Z,-4.42
2023-11-17T06:58:32.998Z,-4.30
2023-11-17T07:01:23.860Z,-4.34
2023-11-17T07:04:06.493Z,-4.44
2023-11-17T07:06:39.824Z,-4.36
2023-11-17T07:09:20.836Z,-4.39
2023-11-17T07:11:59.937Z,-4.47
2023-11-17T07:14:31.785Z,-4.18
2023-11-17T07:17:11.599Z,-4.41
2023-11-17T07:19:48.168Z,-4.42
2023-11-17T07:22:31.169Z,-4.54
2023-11-17T07:25:01.623Z,-4.25
2023-11-17T07:27:35.782Z,-4.25
2023-11-17T07:30:13.202Z,-4.18
2023-11-17T07:32:46.790Z,-4.17
2023-11-17T07:35:23.450Z,-4.04
2023-11-17T07:37:56.344Z,-4.04
2023-11-17T07:40:31.822Z,-4.06
2023-11-17T07:43:04.916Z,-3.88
2023-11-17T07:45:34.787Z,-3.56
2023-11-17T07:48:09.667Z,-3.58
2023-11-17T07:50:54.832Z,-3.56
2023-11-17T07:53:32.146Z,-3.76
2023-11-17T07:56:02.244Z,-3.72
2023-11-17T07:58:42.508Z,-3.63
2023-11-17T08:01:58.183Z,-4.26
2023-11-17T08:04:55.498Z,-4.13
2023-11-17T08:07:50.875Z,-4.96
2023-11-17T08:10:35.168Z,-4.98
2023-11-17T08:13:23.751Z,-3.18
2023-11-17T08:15:58.192Z,-4.10
2023-11-17T08:18:35.724Z,-2.90
2023-11-17T08:21:30.336Z,-3.59
2023-11-17T08:24:22.762Z,-3.87
2023-11-17T08:26:59.162Z,-3.15
2023-11-17T08:30:01.201Z,-3.04
2023-11-17T08:33:33.232Z,-3.29
2023-11-17T08:36:21.467Z,-3.22
2023-11-17T08:38:53.674Z,-3.17
2023-11-17T08:41:35.508Z,-3.30
2023-11-17T08:44:12.047Z,-3.33
2023-11-17T08:46:48.803Z,-3.20
2023-11-17T08:49:22.636Z,-3.28
2023-11-17T08:52:29.953Z,-3.07
2023-11-17T08:55:07.145Z,-3.58
2023-11-17T09:03:55.637Z,-3.72
2023-11-17T09:06:27.818Z,-4.27
2023-11-17T09:09:20.259Z,-3.39
2023-11-17T09:12:06.693Z,-3.53
2023-11-17T09:15:09.121Z,-3.39
2023-11-17T09:17:42.367Z,-3.20
2023-11-17T09:29:17.597Z,-3.34
2023-11-17T09:41:38.471Z,-3.42
2023-11-17T09:44:14.687Z,-3.07
2023-11-17T10:27:59.838Z,-2.91
2023-11-17T10:33:27.505Z,-2.48
2023-11-17T10:36:11.351Z,-2.54
2023-11-17T10:38:47.079Z,-2.61
2023-11-17T10:42:11.569Z,-2.75
2023-11-17T10:51:28.325Z,-3.07
2023-11-17T10:54:24.311Z,-3.15
2023-11-17T10:57:20.588Z,-3.81
2023-11-17T11:01:13.724Z,-3.74
2023-11-17T11:04:54.749Z,-4.50
2023-11-17T11:08:28.297Z,-4.42
2023-11-17T11:14:24.856Z,-3.59
2023-11-17T11:21:21.905Z,-4.12
2023-11-17T11:27:38.035Z,-3.41
2023-11-17T11:30:50.505Z,-3.39
2023-11-17T11:36:56.228Z,-3.49
2023-11-17T11:39:32.726Z,-3.46
2023-11-17T11:42:08.501Z,-3.40
2023-11-17T11:44:39.905Z,-3.22
2023-11-17T11:50:23.053Z,-3.51
2023-11-17T11:56:52.202Z,-3.83
2023-11-17T11:59:41.245Z,-3.75
2023-11-17T12:02:18.963Z,-3.69
2023-11-17T12:05:07.442Z,-4.12
2023-11-17T12:07:44.352Z,-3.67
2023-11-17T12:13:12.091Z,-4.03
2023-11-17T12:15:57.490Z,-3.67
2023-11-17T12:18:47.824Z,-3.73
2023-11-17T12:21:25.986Z,-3.89
2023-11-17T12:28:27.726Z,-3.91
2023-11-17T12:31:08.515Z,-3.90
2023-11-17T12:36:29.661Z,-3.68
2023-11-17T12:39:05.107Z,-3.98
2023-11-17T12:48:41.904Z,-4.05
2023-11-17T12:51:56.043Z,-4.14
2023-11-17T12:55:12.840Z,-3.95
2023-11-17T12:58:07.763Z,-3.98
2023-11-17T13:01:01.788Z,-3.98
2023-11-17T13:03:44.161Z,-4.08
2023-11-17T13:06:26.481Z,-3.73
2023-11-17T13:09:16.835Z,-3.59
2023-11-17T13:15:03.615Z,-3.73
2023-11-17T13:17:46.416Z,-3.74
2023-11-17T13:55:01.892Z,-4.68
2023-11-17T13:57:35.577Z,-3.87
2023-11-17T14:00:12.781Z,-3.91
2023-11-17T14:02:47.640Z,-3.93
2023-11-17T14:05:21.698Z,-3.85
2023-11-17T14:08:08.611Z,-3.99
2023-11-17T14:10:57.536Z,-3.72
2023-11-17T14:13:36.142Z,-3.75
2023-11-17T14:16:18.893Z,-3.73
2023-11-17T14:22:15.500Z,-4.67
2023-11-17T14:25:08.691Z,-3.87
2023-11-17T14:28:21.675Z,-3.77
2023-11-17T14:30:56.612Z,-3.99
2023-11-17T14:33:30.838Z,-4.04
2023-11-17T14:36:05.744Z,-4.12
2023-11-17T14:38:48.027Z,-4.21
2023-11-17T14:41:26.645Z,-4.23
2023-11-17T14:44:32.665Z,-4.14
2023-11-17T14:47:12.770Z,-4.17
2023-11-17T14:49:58.219Z,-4.36
2023-11-17T14:52:42.212Z,-4.42
2023-11-17T14:55:20.547Z,-4.42
2023-11-17T15:01:10.168Z,-4.56
2023-11-17T15:03:47.146Z,-4.77
2023-11-17T15:06:22.811Z,-4.69
2023-11-17T15:09:14.560Z,-4.47
2023-11-17T15:12:21.006Z,-4.38
2023-11-17T15:15:29.864Z,-4.93
2023-11-17T15:18:12.178Z,-4.29
2023-11-17T15:20:47.975Z,-4.27
2023-11-17T15:23:21.303Z,-4.21
2023-11-17T15:26:07.070Z,-4.43
2023-11-17T15:28:56.407Z,-4.45
2023-11-17T15:31:41.402Z,-4.56
2023-11-17T15:34:26.162Z,-4.32
2023-11-17T15:36:59.535Z,-4.32
2023-11-17T15:39:36.864Z,-4.44
2023-11-17T15:42:16.838Z,-4.37
2023-11-17T15:44:55.244Z,-4.36
2023-11-17T15:47:36.577Z,-4.36
2023-11-17T15:50:40.766Z,-5.15
2023-11-17T15:53:17.427Z,-4.41
2023-11-17T15:56:08.254Z,-4.32
2023-11-17T15:59:05.927Z,-4.44
2023-11-17T16:01:39.550Z,-4.25
2023-11-17T16:04:35.512Z,-4.30
2023-11-17T16:07:16.311Z,-4.27
2023-11-17T16:10:01.188Z,-4.28
2023-11-17T16:23:37.912Z,-4.23
2023-11-17T16:29:45.292Z,-5.02
2023-11-17T16:32:38.381Z,-4.43
2023-11-17T16:35:20.471Z,-4.47
2023-11-17T16:41:37.740Z,-4.43
2023-11-17T16:44:18.947Z,-4.32
2023-11-17T16:46:55.906Z,-4.43
2023-11-17T16:49:27.005Z,-4.38
2023-11-17T16:52:12.143Z,-4.41
2023-11-17T16:54:50.830Z,-4.41
2023-11-17T16:57:25.845Z,-4.44
2023-11-17T17:00:16.914Z,-4.29
2023-11-17T17:02:50.754Z,-4.30
2023-11-17T17:05:28.765Z,-4.29
2023-11-17T17:08:34.859Z,-4.41
2023-11-17T17:11:16.103Z,-4.45
2023-11-17T17:14:17.270Z,-4.47
2023-11-17T17:20:38.623Z,-4.58
2023-11-17T17:23:31.368Z,-4.43
2023-11-17T17:26:11.970Z,-4.55
2023-11-17T17:28:58.987Z,-4.94
2023-11-17T17:31:39.301Z,-4.70
2023-11-17T17:34:10.129Z,-4.67
2023-11-17T17:36:47.196Z,-4.63
2023-11-17T17:39:33.241Z,-4.66
2023-11-17T17:42:08.011Z,-4.72
2023-11-17T17:44:50.953Z,-4.78
2023-11-17T17:47:27.683Z,-4.78
2023-11-17T17:50:36.023Z,-4.77
2023-11-17T17:53:20.549Z,-4.87
2023-11-17T17:55:57.688Z,-4.69
2023-11-17T17:58:33.557Z,-4.69
2023-11-17T18:01:29.996Z,-4.91
2023-11-17T18:04:12.109Z,-4.83
2023-11-17T18:06:49.798Z,-4.90
2023-11-17T18:09:29.703Z,-4.98
2023-11-17T18:12:07.815Z,-4.87
2023-11-17T18:15:09.795Z,-4.81
2023-11-17T18:18:02.629Z,-4.85
2023-11-17T18:20:42.541Z,-5.29
2023-11-17T18:23:19.138Z,-5.29
2023-11-17T18:26:35.921Z,-5.34
2023-11-17T18:29:23.829Z,-5.28
2023-11-17T18:32:03.457Z,-5.36
2023-11-17T18:34:37.554Z,-5.48
2023-11-17T18:37:07.959Z,-5.50
2023-11-17T18:39:46.833Z,-5.66
2023-11-17T18:42:29.517Z,-5.80
2023-11-17T18:45:05.428Z,-5.85
2023-11-17T18:47:41.400Z,-5.95
2023-11-17T18:50:19.354Z,-6.07
2023-11-17T18:53:07.604Z,-6.13
2023-11-17T18:55:59.512Z,-5.87
2023-11-17T18:58:44.084Z,-6.06
2023-11-17T19:01:18.986Z,-5.91
2023-11-17T19:03:51.784Z,-5.90
2023-11-17T19:11:11.552Z,-5.81
2023-11-17T19:13:52.633Z,-5.93
2023-11-17T19:16:28.261Z,-5.79
2023-11-17T19:19:05.381Z,-5.99
2023-11-17T19:21:39.837Z,-5.88
2023-11-17T19:24:23.714Z,-5.77
2023-11-17T19:27:29.532Z,-5.69
2023-11-17T19:37:08.826Z,-6.57
2023-11-17T19:39:51.428Z,-5.79
2023-11-17T19:42:34.602Z,-5.83
2023-11-17T19:45:11.673Z,-5.90
2023-11-17T19:47:44.165Z,-5.86
2023-11-17T19:50:19.213Z,-5.97
2023-11-17T19:53:02.857Z,-6.02
2023-11-17T19:55:40.071Z,-5.97
2023-11-17T19:58:16.112Z,-6.26
2023-11-17T20:01:19.464Z,-6.38
2023-11-17T20:03:52.283Z,-6.19
2023-11-17T20:06:30.138Z,-6.20
2023-11-17T20:09:20.536Z,-6.05
2023-11-17T20:12:11.195Z,-6.22
2023-11-17T20:14:58.188Z,-6.37
2023-11-17T20:17:44.750Z,-6.30
2023-11-17T20:20:57.400Z,-6.45
2023-11-17T20:27:46.126Z,-6.17
2023-11-17T20:30:31.362Z,-6.17
2023-11-17T20:33:16.487Z,-6.34
2023-11-17T20:39:16.094Z,-6.37
2023-11-17T20:42:01.463Z,-6.36
2023-11-17T20:44:53.089Z,-6.43
2023-11-17T20:47:26.499Z,-6.62
2023-11-17T20:49:59.855Z,-6.38
2023-11-17T20:52:39.989Z,-6.54
2023-11-17T20:55:20.469Z,-6.55
2023-11-17T20:57:52.702Z,-6.53
2023-11-17T21:00:36.106Z,-6.42
2023-11-17T21:03:14.340Z,-6.41
2023-11-17T21:05:52.203Z,-6.50
2023-11-17T21:08:25.665Z,-6.47
2023-11-17T21:13:36.601Z,-6.57
2023-11-17T21:16:11.687Z,-6.52
2023-11-17T21:19:00.420Z,-6.53
2023-11-17T21:24:23.026Z,-6.62
2023-11-17T21:27:11.272Z,-6.56
2023-11-17T21:29:51.370Z,-6.55
2023-11-17T21:32:27.912Z,-6.57
2023-11-17T21:34:59.075Z,-6.62
2023-11-17T21:37:37.922Z,-6.71
2023-11-17T21:40:16.394Z,-6.67
2023-11-17T21:42:48.782Z,-6.78
2023-11-17T21:45:25.074Z,-6.69
2023-11-17T21:47:59.645Z,-6.76
2023-11-17T21:50:31.974Z,-6.77
2023-11-17T21:53:10.495Z,-6.90
2023-11-17T21:55:43.355Z,-6.84
2023-11-17T23:36:10.526Z,-7.43
2023-11-17T23:51:30.819Z,-8.77
2023-11-17T23:54:37.374Z,-7.42
2023-11-17T23:57:58.455Z,-7.42
